Tuesday, May 03, 2016
10:36 UTC
  |  Log In   |  Register Free
Airport Search:

Madison Airport
(KI39)

Madison Airport Diagram
No Airport Diagram Available

FAA data valid effective Mar 31 2016 - May 26 2016 (unless otherwise noted).

 
 
 
 
 
 
 
 
 
 
 
 
 
 
Current Aviation Weather for KI39

Weather Summary


The most recent METAR observation for I39 was updated at: 12:55 UTC
METAR for KI39 is not available. Closest METAR is for KDVK
KI39  (most recent observation was updatred at 31:01 UTC)
031015Z AUTO 00000KT 10SM BKN031 OVC041 12/11 A2990 RMK AO2

KDVK  (21.0 nm NE)   (most recent observation was updated at 31:01 UTC)
031015Z AUTO 00000KT 10SM BKN037 OVC044 12/10 A2992 RMK AO2

KLEX  (27.6 nm SE)   (most recent observation was updated at 30:95 UTC)
030954Z 00000KT 10SM BKN034 OVC042 13/10 A2990 RMK AO2 SLP121 T01280100

TAF for KI39 is not available.
KLEX  (27.6 nm SE)   (most recent observation was updatred at 30:92 UTC)
AMD 030928Z 0309/0406 33003KT 5SM BR SCT015 BKN025 FM031300 31006KT P6SM SCT025 BKN035 FM032100 29006KT P6SM BKN050


GlobalAir.com is loading additional information.
 Current Weather at I39
54.0 F° (12.0 C°)

Northwest winds at 3.5 mph
Pressure:
29.91 in
Humidity:
94%
Wind:
Northwest at 3.5 mph
Dew Point:
51.8 F° (11.0 C°)
Visibility:
10.00 mi
I39 NOAA Radar




Find All Airport Services Find A Hotel Find A Rental Car Find A Golf Course Find A Restaurant $100 Hamburger



Airport Weather Forecast for KI39

Translated METAR for KI39 (1015 UTC)
METAR:
KI39 031015Z AUTO 00000KT 10SM BKN031 OVC041 12/11 A2990 RMK AO2
Conditions at:
KI39 (Madison, KY) observed 1015 UTC 03 May 2016
Temperature:
12°C (53.6°F)
Dewpoint:
11°C (51.8°F) [RH = 93.6]
Pressure:
29.9 inches Hg (1012.5 mb)
Winds:
from the N (000 degrees) at 0 mph (0 knots: 0 m/s)
Visibility:
10 mile(s)
Ceiling:
3,100 feet AGL
Clouds:
Broken Cloud Cover at 3,100 feet AGL
Overcast Skies at 4,100 feet AGL
Remarks:
site is un-manned

Translated TAF for KLEX (Blue Grass, KY) (0928 UTC)
TAF text:
KLEX 030928Z 0309/0406 33003KT 5SM BR SCT015 BKN025
Forecast period:
Tuesday May 03 2016 09:00 UTC - Wednesday May 04 2016 06:00 UTC
Forecast type:
FROM: standard forecast or significant change
Winds:
from the NNW (330 degrees) at 3.5 mph (3 knots: 1.5 m/s)
Visibility:
5 mile(s) (8 km)
Ceiling:
2,500 feet AGL
Clouds:
Scattered Clouds at 1,500 feet AGL
Broken Cloud Cover at 2,500 feet AGL
Weather:
Moderate Mist
TAF text:
FM031300 31006KT P6SM SCT025 BKN035
Forecast period:
Tuesday May 03 2016 13:00 UTC - Tuesday May 03 2016 21:00 UTC
Forecast type:
FROM: standard forecast or significant change
Winds:
from the NW (310 degrees) at 6.9 mph (6 knots: 3.1 m/s)
Visibility:
6 or more mile(s) (9.7+ km)
Ceiling:
3,500 feet AGL
Clouds:
Scattered Clouds at 2,500 feet AGL
Broken Cloud Cover at 3,500 feet AGL
Weather:
no significant weather observed at this time
TAF text:
FM032100 29006KT P6SM BKN050
Forecast period:
Tuesday May 03 2016 21:00 UTC - Wednesday May 04 2016 06:00 UTC
Forecast type:
FROM: standard forecast or significant change
Winds:
from the WNW (290 degrees) at 6.9 mph (6 knots: 3.1 m/s)
Visibility:
6 or more mile(s) (9.7+ km)
Ceiling:
5,000 feet AGL
Clouds:
Broken Cloud Cover at 5,000 feet AGL
Weather:
no significant weather observed at this time
FBO's on the Field
FBO Company Facility Photos Services Transportation Aviation Fuel Prices: Prices include tax
Catering Weather Repair Courtesy Rental Type 100LL JetA JetA+ MOGAS 8087
 
Eastern Kentucky University

This FBO has not yet been rated
FS:Shell
Last Updated: Apr-01
Login to update fuel prices
SS:
Contact Eastern Kentucky UniversityMore FBO Information
 
Add another FBO Facility Photos Catering Weather Repair Courtesy Rental Type 100LL JetA JetA+ MOGAS 8087
Services Transportation Aviation Fuel Prices: Prices include tax


model-print
model-print
model-print
model-print